createdAt,value
2019-04-28T00:03:25.153Z,11.00
2019-04-28T00:08:26.797Z,10.95
2019-04-28T00:13:28.327Z,10.87
2019-04-28T00:18:31.677Z,10.75
2019-04-28T00:23:46.108Z,10.66
2019-04-28T00:28:47.764Z,10.62
2019-04-28T00:33:51.389Z,10.53
2019-04-28T00:38:52.829Z,10.51
2019-04-28T00:43:54.379Z,10.47
2019-04-28T00:48:56.041Z,10.43
2019-04-28T00:53:57.694Z,10.40
2019-04-28T00:58:59.359Z,10.37
2019-04-28T01:04:02.106Z,10.30
2019-04-28T01:09:06.421Z,10.26
2019-04-28T01:14:07.980Z,10.15
2019-04-28T01:19:17.844Z,10.05
2019-04-28T01:24:20.115Z,10.21
2019-04-28T01:29:21.762Z,10.22
2019-04-28T01:34:24.265Z,10.17
2019-04-28T01:39:25.864Z,10.20
2019-04-28T01:44:27.424Z,10.18
2019-04-28T01:49:29.499Z,10.17
2019-04-28T01:54:31.187Z,10.12
2019-04-28T01:59:32.749Z,10.09
2019-04-28T02:04:34.332Z,10.02
2019-04-28T02:09:35.980Z,9.92
2019-04-28T02:14:37.566Z,9.86
2019-04-28T02:19:41.083Z,9.88
2019-04-28T02:24:42.747Z,9.96
2019-04-28T02:29:44.323Z,10.06
2019-04-28T02:34:45.894Z,10.02
2019-04-28T02:39:47.496Z,10.03
2019-04-28T02:44:50.411Z,10.06
2019-04-28T02:50:01.121Z,9.96
2019-04-28T02:55:03.832Z,9.90
2019-04-28T03:00:05.697Z,9.88
2019-04-28T03:05:07.376Z,9.79
2019-04-28T03:10:10.971Z,9.63
2019-04-28T03:15:12.755Z,9.54
2019-04-28T03:20:14.527Z,9.57
2019-04-28T03:25:30.248Z,9.52
2019-04-28T03:31:06.541Z,9.49
2019-04-28T03:36:08.582Z,9.46
2019-04-28T03:41:10.916Z,9.47
2019-04-28T03:46:20.276Z,9.50
2019-04-28T03:51:21.431Z,9.50
2019-04-28T03:56:23.002Z,9.50
2019-04-28T04:01:24.721Z,9.49
2019-04-28T04:06:26.312Z,9.46
2019-04-28T04:11:41.033Z,9.46
2019-04-28T04:16:57.103Z,9.46
2019-04-28T04:22:00.362Z,9.45
2019-04-28T04:27:02.166Z,9.46
2019-04-28T04:32:15.832Z,9.51
2019-04-28T04:37:07.224Z,9.54
2019-04-28T04:42:10.504Z,9.56
2019-04-28T04:47:12.228Z,9.57
2019-04-28T04:52:13.810Z,9.56
2019-04-28T04:57:15.400Z,9.58
2019-04-28T05:02:30.644Z,9.61
2019-04-28T05:07:30.741Z,9.61
2019-04-28T05:12:32.314Z,9.66
2019-04-28T05:17:33.932Z,9.66
2019-04-28T05:22:42.635Z,9.63
2019-04-28T05:27:43.996Z,9.60
2019-04-28T05:32:53.682Z,9.62
2019-04-28T05:37:49.460Z,9.65
2019-04-28T05:43:00.989Z,9.64
2019-04-28T05:48:02.946Z,9.52
2019-04-28T05:53:10.636Z,9.54
2019-04-28T05:58:23.466Z,9.58
2019-04-28T06:03:25.575Z,9.53
2019-04-28T06:08:33.988Z,9.55
2019-04-28T06:13:35.566Z,9.60
2019-04-28T06:18:37.165Z,9.56
2019-04-28T06:23:38.758Z,9.56
2019-04-28T06:28:40.444Z,9.61
2019-04-28T06:33:44.428Z,9.60
2019-04-28T06:38:45.602Z,9.62
2019-04-28T06:43:47.173Z,9.61
2019-04-28T06:48:48.782Z,9.53
2019-04-28T06:53:50.375Z,9.45
2019-04-28T06:58:58.758Z,9.50
2019-04-28T07:03:55.474Z,9.57
2019-04-28T07:08:57.049Z,9.53
2019-04-28T07:13:58.734Z,9.55
2019-04-28T07:19:00.314Z,9.53
2019-04-28T07:24:01.983Z,9.56
2019-04-28T07:29:03.639Z,9.53
2019-04-28T07:34:05.223Z,9.54
2019-04-28T07:39:06.911Z,9.53
2019-04-28T07:44:08.498Z,9.66
2019-04-28T07:49:10.063Z,9.84
2019-04-28T07:54:13.556Z,9.90
2019-04-28T07:59:15.127Z,9.90
2019-04-28T08:04:16.739Z,9.90
2019-04-28T08:09:18.836Z,9.89
2019-04-28T08:14:20.425Z,9.87
2019-04-28T08:19:22.114Z,9.89
2019-04-28T08:24:23.757Z,9.93
2019-04-28T08:29:25.342Z,9.98
2019-04-28T08:34:26.942Z,10.02
2019-04-28T08:39:30.308Z,10.08
2019-04-28T08:44:31.869Z,10.10
2019-04-28T08:49:33.476Z,10.12
2019-04-28T08:54:35.062Z,10.21
2019-04-28T08:59:36.744Z,10.27
2019-04-28T09:04:38.416Z,10.32
2019-04-28T09:09:40.080Z,10.47
2019-04-28T09:14:41.691Z,10.58
2019-04-28T09:19:43.202Z,10.58
2019-04-28T09:24:44.786Z,10.53
2019-04-28T09:29:46.344Z,10.45
2019-04-28T09:34:47.886Z,10.53
2019-04-28T09:40:03.475Z,10.59
2019-04-28T09:45:27.673Z,10.68
2019-04-28T09:50:29.228Z,10.78
2019-04-28T10:00:43.065Z,11.08
2019-04-28T10:05:46.171Z,11.24
2019-04-28T10:10:47.692Z,11.36
2019-04-28T10:15:49.382Z,11.44
2019-04-28T10:20:50.981Z,11.35
2019-04-28T10:25:52.547Z,11.25
2019-04-28T10:30:54.225Z,11.27
2019-04-28T10:35:55.890Z,11.18
2019-04-28T10:41:10.999Z,11.13
2019-04-28T10:46:12.559Z,11.17
2019-04-28T10:51:15.093Z,11.22
2019-04-28T10:56:16.662Z,11.16
2019-04-28T11:01:18.219Z,11.12
2019-04-28T11:06:20.481Z,11.06
2019-04-28T11:11:26.564Z,11.06
2019-04-28T11:16:34.423Z,11.07
2019-04-28T11:21:36.166Z,11.12
2019-04-28T11:26:37.827Z,11.19
2019-04-28T11:31:39.387Z,11.28
2019-04-28T11:36:41.054Z,11.31
2019-04-28T11:41:42.663Z,11.32
2019-04-28T11:46:44.297Z,11.41
2019-04-28T11:51:45.839Z,11.58
2019-04-28T11:56:47.529Z,11.79
2019-04-28T12:01:49.190Z,12.22
2019-04-28T12:06:50.785Z,12.15
2019-04-28T12:11:53.029Z,12.23
2019-04-28T12:17:14.497Z,12.29
2019-04-28T12:22:16.506Z,12.33
2019-04-28T12:27:18.416Z,12.89
2019-04-28T12:32:20.037Z,13.65
2019-04-28T12:37:21.574Z,13.42
2019-04-28T12:42:23.261Z,13.25
2019-04-28T12:47:26.970Z,13.03
2019-04-28T12:52:28.598Z,13.86
2019-04-28T12:57:30.149Z,14.63
2019-04-28T13:02:51.391Z,14.96
2019-04-28T13:07:52.950Z,15.27
2019-04-28T13:12:54.507Z,15.44
2019-04-28T13:17:56.216Z,15.66
2019-04-28T13:22:57.800Z,15.59
2019-04-28T13:27:59.410Z,15.50
2019-04-28T13:33:01.010Z,15.51
2019-04-28T13:38:02.840Z,15.71
2019-04-28T13:43:04.534Z,15.22
2019-04-28T13:53:29.690Z,14.22
2019-04-28T13:58:56.763Z,13.88
2019-04-28T14:04:20.994Z,13.76
2019-04-28T14:09:22.564Z,13.68
2019-04-28T14:14:24.125Z,13.56
2019-04-28T14:19:25.694Z,13.56
2019-04-28T14:24:27.302Z,13.81
2019-04-28T14:29:28.866Z,13.97
2019-04-28T14:34:30.417Z,13.81
2019-04-28T14:39:32.036Z,13.66
2019-04-28T14:44:33.690Z,13.50
2019-04-28T14:49:35.748Z,13.47
2019-04-28T14:54:37.496Z,13.46
2019-04-28T14:59:39.089Z,13.38
2019-04-28T15:05:03.947Z,13.32
2019-04-28T15:10:12.690Z,13.22
2019-04-28T15:15:14.365Z,13.18
2019-04-28T15:20:15.972Z,13.20
2019-04-28T15:25:17.554Z,13.27
2019-04-28T15:30:19.152Z,13.34
2019-04-28T15:35:20.883Z,13.43
2019-04-28T15:40:22.476Z,13.52
2019-04-28T15:45:24.189Z,14.61
2019-04-28T15:50:25.808Z,16.25
2019-04-28T15:55:34.196Z,16.55
2019-04-28T16:00:35.788Z,15.51
2019-04-28T16:05:37.354Z,14.88
2019-04-28T16:10:38.919Z,14.48
2019-04-28T16:15:40.479Z,14.33
2019-04-28T16:20:42.049Z,14.41
2019-04-28T16:25:43.598Z,14.20
2019-04-28T16:30:45.322Z,14.06
2019-04-28T16:35:46.917Z,13.98
2019-04-28T16:40:48.500Z,13.93
2019-04-28T16:45:50.080Z,14.32
2019-04-28T16:50:51.793Z,14.03
2019-04-28T16:56:18.837Z,13.88
2019-04-28T17:01:30.670Z,13.86
2019-04-28T17:06:32.344Z,13.82
2019-04-28T17:11:34.035Z,13.77
2019-04-28T17:16:35.740Z,13.78
2019-04-28T17:21:37.412Z,13.68
2019-04-28T17:26:39.095Z,13.66
2019-04-28T17:31:40.677Z,13.56
2019-04-28T17:36:42.346Z,13.65
2019-04-28T17:41:43.935Z,13.72
2019-04-28T17:46:45.849Z,13.70
2019-04-28T17:51:47.515Z,13.59
2019-04-28T17:56:49.205Z,13.51
2019-04-28T18:02:09.087Z,13.37
2019-04-28T18:07:18.961Z,13.27
2019-04-28T18:12:21.943Z,13.22
2019-04-28T18:17:38.885Z,13.18
2019-04-28T18:22:40.678Z,13.13
2019-04-28T18:27:42.250Z,13.06
2019-04-28T18:33:09.191Z,12.96
2019-04-28T18:38:19.145Z,12.85
2019-04-28T18:43:40.490Z,12.75
2019-04-28T18:48:42.088Z,12.70
2019-04-28T18:53:44.644Z,12.67
2019-04-28T18:58:46.327Z,12.62
2019-04-28T19:03:47.931Z,12.54
2019-04-28T19:08:57.553Z,12.42
2019-04-28T19:14:03.846Z,12.34
2019-04-28T19:19:07.779Z,12.33
2019-04-28T19:24:09.355Z,12.36
2019-04-28T19:29:10.910Z,12.29
2019-04-28T19:34:12.493Z,12.24
2019-04-28T19:39:14.181Z,12.20
2019-04-28T19:44:16.017Z,12.17
2019-04-28T19:49:17.574Z,12.14
2019-04-28T19:54:22.123Z,12.11
2019-04-28T19:59:55.512Z,12.09
2019-04-28T20:04:57.066Z,12.04
2019-04-28T20:09:58.622Z,11.98
2019-04-28T20:15:00.287Z,11.95
2019-04-28T20:20:01.984Z,11.89
2019-04-28T20:25:03.929Z,11.87
2019-04-28T20:30:05.715Z,11.87
2019-04-28T20:35:07.290Z,11.83
2019-04-28T20:40:14.545Z,11.78
2019-04-28T20:45:16.816Z,11.79
2019-04-28T20:50:18.361Z,11.81
2019-04-28T20:55:19.922Z,11.83
2019-04-28T21:00:21.594Z,11.83
2019-04-28T21:05:23.133Z,11.78
2019-04-28T21:10:36.882Z,11.73
2019-04-28T21:15:28.289Z,11.70
2019-04-28T21:20:29.852Z,11.64
2019-04-28T21:25:31.447Z,11.61
2019-04-28T21:30:33.149Z,11.52
2019-04-28T21:35:34.706Z,11.50
2019-04-28T21:40:36.770Z,11.46
2019-04-28T21:46:00.613Z,11.47
2019-04-28T21:51:02.383Z,11.46
2019-04-28T21:56:03.935Z,11.41
2019-04-28T22:01:06.490Z,11.42
2019-04-28T22:06:08.186Z,11.33
2019-04-28T22:11:09.803Z,11.33
2019-04-28T22:16:11.689Z,11.27
2019-04-28T22:21:13.236Z,11.21
2019-04-28T22:26:34.453Z,11.20
2019-04-28T22:31:36.225Z,11.18
2019-04-28T22:36:37.793Z,11.13
2019-04-28T22:41:39.385Z,11.11
2019-04-28T22:46:41.020Z,11.06
2019-04-28T22:51:42.715Z,10.98
2019-04-28T22:56:49.802Z,10.95
2019-04-28T23:01:59.367Z,10.86
2019-04-28T23:07:01.038Z,10.81
2019-04-28T23:12:02.909Z,10.83
2019-04-28T23:17:06.491Z,10.81
2019-04-28T23:22:46.730Z,10.76
2019-04-28T23:27:43.136Z,10.77
2019-04-28T23:32:44.755Z,10.78
2019-04-28T23:37:46.330Z,10.76
2019-04-28T23:42:53.531Z,10.75
2019-04-28T23:47:55.147Z,10.67
2019-04-28T23:53:03.032Z,10.64
2019-04-28T23:58:04.732Z,10.67
